Time;durP1;ratioP1;P1;durP2;ratioP2;P2;SDS_P1;SDS_P2;PMS_P1;PMS_P2;Temp;Humidity;BMP_temperature;BMP_pressure;BME280_temperature;BME280_humidity;BME280_pressure;Samples;Min_cycle;Max_cycle;Signal;HPM_P1;HPM_P2
2021/09/26 00:02:19;;;;;;;29.30;27.33;;;19.00;83.30;;;;;;5086957;28;20593;-71
2021/09/26 00:04:46;;;;;;;28.77;26.87;;;19.00;83.00;;;;;;5093321;28;20464;-72
2021/09/26 00:07:12;;;;;;;29.30;27.50;;;19.10;82.90;;;;;;5087443;28;20460;-73
2021/09/26 00:09:39;;;;;;;31.00;29.07;;;19.10;82.70;;;;;;5097426;28;20477;-73
2021/09/26 00:12:08;;;;;;;29.23;27.27;;;19.10;82.90;;;;;;5086578;28;20449;-73
2021/09/26 00:14:36;;;;;;;30.73;28.73;;;19.10;82.90;;;;;;5080348;28;20461;-73
2021/09/26 00:17:03;;;;;;;29.83;27.77;;;19.10;82.90;;;;;;5088180;28;20453;-75
2021/09/26 00:19:30;;;;;;;29.37;27.53;;;19.20;82.80;;;;;;5089482;28;20489;-73
2021/09/26 00:21:57;;;;;;;29.83;27.93;;;19.20;82.70;;;;;;5086651;28;20841;-73
2021/09/26 00:24:24;;;;;;;30.03;28.07;;;19.10;82.80;;;;;;5088101;28;20747;-73
2021/09/26 00:26:51;;;;;;;29.73;27.83;;;19.10;83.20;;;;;;5087585;28;20548;-73
2021/09/26 00:29:19;;;;;;;29.07;27.27;;;19.10;83.30;;;;;;5097133;28;20891;-73
2021/09/26 00:31:46;;;;;;;28.90;27.10;;;19.00;83.50;;;;;;5088885;28;20451;-73
2021/09/26 00:34:13;;;;;;;29.23;27.23;;;19.00;83.80;;;;;;5096113;28;20535;-73
2021/09/26 00:36:40;;;;;;;29.47;27.53;;;18.90;84.20;;;;;;5087390;28;20458;-73
2021/09/26 00:39:07;;;;;;;29.10;27.30;;;19.00;84.00;;;;;;5097198;28;20464;-73
2021/09/26 00:41:34;;;;;;;30.30;28.50;;;18.90;84.20;;;;;;5089559;28;20455;-73
2021/09/26 00:44:01;;;;;;;28.93;27.07;;;18.90;84.50;;;;;;5087800;28;20468;-73
2021/09/26 00:46:29;;;;;;;29.40;27.50;;;18.90;84.70;;;;;;5092882;28;20457;-73
2021/09/26 00:48:56;;;;;;;28.90;27.10;;;18.90;84.90;;;;;;5103307;28;20453;-73
2021/09/26 00:51:23;;;;;;;28.10;26.40;;;19.00;85.00;;;;;;5085017;28;20481;-73
2021/09/26 00:53:50;;;;;;;28.20;26.40;;;19.00;84.80;;;;;;5090723;28;20449;-73
2021/09/26 00:56:17;;;;;;;27.70;26.00;;;19.00;84.80;;;;;;5092508;28;20459;-73
2021/09/26 00:58:43;;;;;;;28.90;27.00;;;19.00;84.80;;;;;;5089936;28;20453;-73
2021/09/26 01:01:10;;;;;;;28.17;26.50;;;19.00;84.90;;;;;;5091950;28;20468;-73
2021/09/26 01:03:38;;;;;;;29.13;27.23;;;19.00;85.20;;;;;;5099113;28;20476;-74
2021/09/26 01:06:17;;;;;;;28.37;26.37;;;18.90;85.20;;;;;;5092201;28;20544;-73
2021/09/26 01:08:56;;;;;;;28.00;25.87;;;18.90;85.50;;;;;;5089374;28;20449;-73
2021/09/26 01:11:32;;;;;;;28.80;26.77;;;18.80;86.10;;;;;;5091079;28;20484;-75
2021/09/26 01:14:09;;;;;;;28.17;26.33;;;18.80;86.00;;;;;;5087469;28;20461;-74
2021/09/26 01:16:41;;;;;;;27.90;26.30;;;18.80;86.10;;;;;;5091570;28;20841;-73
2021/09/26 01:19:35;;;;;;;28.23;26.10;;;18.80;86.00;;;;;;5091220;28;20472;-73
2021/09/26 01:22:05;;;;;;;27.90;25.90;;;18.80;86.20;;;;;;5089236;28;20563;-72
2021/09/26 01:25:05;;;;;;;26.20;24.60;;;18.70;86.50;;;;;;5087773;28;20457;-71
2021/09/26 01:28:02;;;;;;;28.23;26.47;;;18.80;86.40;;;;;;5089826;28;20453;-71
2021/09/26 01:30:37;;;;;;;27.87;26.17;;;18.70;86.70;;;;;;5091412;28;20469;-72
2021/09/26 01:33:14;;;;;;;27.47;25.73;;;18.60;86.90;;;;;;5092910;28;20451;-71
2021/09/26 01:35:48;;;;;;;28.23;26.23;;;18.70;86.90;;;;;;5090350;28;20520;-73
2021/09/26 01:38:22;;;;;;;28.00;26.30;;;18.70;86.80;;;;;;5089317;28;20448;-73
2021/09/26 01:40:53;;;;;;;28.13;26.33;;;18.60;87.00;;;;;;5090208;28;20830;-73
2021/09/26 01:43:26;;;;;;;27.70;26.00;;;18.50;87.70;;;;;;5096425;28;20475;-73
2021/09/26 01:45:57;;;;;;;28.30;26.60;;;18.50;87.50;;;;;;5082506;28;20536;-73
2021/09/26 01:48:34;;;;;;;28.23;26.43;;;18.50;87.60;;;;;;5090747;28;20455;-73
2021/09/26 01:51:02;;;;;;;28.03;25.90;;;18.50;87.70;;;;;;5089514;28;20479;-73
2021/09/26 01:53:30;;;;;;;27.30;25.50;;;18.40;88.00;;;;;;5090211;28;20533;-73
2021/09/26 01:55:58;;;;;;;27.33;25.63;;;18.50;88.00;;;;;;5085340;28;20576;-73
2021/09/26 01:58:26;;;;;;;27.67;25.87;;;18.40;88.20;;;;;;5089403;28;20453;-73
2021/09/26 02:00:55;;;;;;;27.40;25.60;;;18.40;88.40;;;;;;5089092;28;20487;-73
2021/09/26 02:03:24;;;;;;;27.50;25.80;;;18.30;88.60;;;;;;5093418;28;20495;-73
2021/09/26 02:05:51;;;;;;;28.27;26.57;;;18.30;88.60;;;;;;5089995;28;20455;-73
2021/09/26 02:08:19;;;;;;;28.60;26.70;;;18.30;88.70;;;;;;5100250;28;20950;-73
2021/09/26 02:10:48;;;;;;;27.13;25.17;;;18.30;88.80;;;;;;5085982;28;20480;-73
2021/09/26 02:13:15;;;;;;;27.53;25.83;;;18.20;89.10;;;;;;5094747;28;20449;-73
2021/09/26 02:15:44;;;;;;;27.20;25.50;;;18.20;89.10;;;;;;5086310;28;20584;-73
2021/09/26 02:18:14;;;;;;;28.73;26.80;;;18.20;89.30;;;;;;5089179;28;20453;-73
2021/09/26 02:20:41;;;;;;;28.43;26.43;;;18.20;89.30;;;;;;5090359;28;20485;-73
2021/09/26 02:23:09;;;;;;;28.77;26.73;;;18.10;89.60;;;;;;5096253;28;20480;-73
2021/09/26 02:25:39;;;;;;;28.27;26.40;;;18.10;89.70;;;;;;5085821;28;20460;-73
2021/09/26 02:28:07;;;;;;;26.73;24.97;;;18.00;89.90;;;;;;5088835;28;20452;-73
2021/09/26 02:30:33;;;;;;;26.83;25.13;;;18.00;90.10;;;;;;5089137;28;20477;-73
2021/09/26 02:33:01;;;;;;;28.37;25.97;;;18.00;90.10;;;;;;5088644;28;20461;-73
2021/09/26 02:35:30;;;;;;;27.77;26.07;;;17.90;90.40;;;;;;5090065;28;21021;-73
2021/09/26 02:37:57;;;;;;;27.37;24.97;;;17.90;90.50;;;;;;5083373;28;20518;-73
2021/09/26 02:40:24;;;;;;;28.00;26.10;;;17.90;90.60;;;;;;5089290;28;20612;-73
2021/09/26 02:43:04;;;;;;;26.30;24.70;;;17.90;90.70;;;;;;5086430;28;20470;-73
2021/09/26 02:45:34;;;;;;;26.30;24.23;;;17.90;90.90;;;;;;5086266;28;20468;-73
2021/09/26 02:48:06;;;;;;;27.50;25.60;;;17.90;91.00;;;;;;5093540;28;20449;-73
2021/09/26 02:50:35;;;;;;;28.57;26.70;;;17.90;90.90;;;;;;5090780;28;20476;-73
2021/09/26 02:53:04;;;;;;;28.13;26.23;;;17.90;90.90;;;;;;5095176;28;20459;-73
2021/09/26 02:55:32;;;;;;;26.53;24.93;;;17.80;90.90;;;;;;5086693;28;20548;-73
2021/09/26 02:58:00;;;;;;;27.40;25.60;;;17.80;91.00;;;;;;5087023;28;20857;-73
2021/09/26 03:00:32;;;;;;;28.23;26.07;;;17.80;91.10;;;;;;5089417;28;21005;-73
2021/09/26 03:03:06;;;;;;;26.27;24.57;;;17.70;91.20;;;;;;5089056;28;20508;-73
2021/09/26 03:05:34;;;;;;;26.60;24.90;;;17.70;91.30;;;;;;5088553;28;21906;-73
2021/09/26 03:08:01;;;;;;;27.53;25.27;;;17.70;91.40;;;;;;5089040;28;20452;-73
2021/09/26 03:10:28;;;;;;;26.00;24.10;;;17.70;91.40;;;;;;5089348;28;20573;-73
2021/09/26 03:12:56;;;;;;;28.33;26.43;;;17.60;91.40;;;;;;5089105;28;20903;-74
2021/09/26 03:15:23;;;;;;;26.90;25.10;;;17.50;91.70;;;;;;5088329;28;20575;-73
2021/09/26 03:17:50;;;;;;;27.40;25.60;;;17.50;91.70;;;;;;5079881;28;20454;-73
2021/09/26 03:20:17;;;;;;;28.40;26.60;;;17.50;91.80;;;;;;5089744;28;20559;-72
2021/09/26 03:22:46;;;;;;;28.87;27.07;;;17.50;92.10;;;;;;5087824;28;20813;-71
2021/09/26 03:25:13;;;;;;;28.10;26.20;;;17.40;92.00;;;;;;5088738;28;20578;-71
2021/09/26 03:27:41;;;;;;;27.33;25.53;;;17.40;92.20;;;;;;5087863;28;20457;-71
2021/09/26 03:30:09;;;;;;;27.23;25.30;;;17.30;92.20;;;;;;5089313;28;20560;-72
2021/09/26 03:32:36;;;;;;;28.47;26.67;;;17.30;92.40;;;;;;5086438;28;20460;-72
2021/09/26 03:35:04;;;;;;;27.90;26.00;;;17.30;92.50;;;;;;5078180;28;20532;-72
2021/09/26 03:37:32;;;;;;;26.53;24.80;;;17.20;93.00;;;;;;5085718;28;20461;-72
2021/09/26 03:40:00;;;;;;;26.87;25.13;;;17.30;92.80;;;;;;5086590;28;20910;-72
2021/09/26 03:42:27;;;;;;;26.37;24.60;;;17.20;92.80;;;;;;5083511;28;20458;-71
2021/09/26 03:44:54;;;;;;;27.97;25.67;;;17.20;92.70;;;;;;5087229;28;20540;-71
2021/09/26 03:47:21;;;;;;;26.77;24.67;;;17.30;92.70;;;;;;5085439;28;20465;-71
2021/09/26 03:49:48;;;;;;;26.47;24.60;;;17.20;92.90;;;;;;5081071;28;20479;-72
2021/09/26 03:52:15;;;;;;;26.17;24.23;;;17.10;93.10;;;;;;5087982;28;20457;-71
2021/09/26 03:54:42;;;;;;;29.77;27.70;;;17.10;93.40;;;;;;5088015;28;20985;-72
2021/09/26 03:57:10;;;;;;;28.00;26.20;;;17.10;93.60;;;;;;5087378;28;20457;-71
2021/09/26 03:59:37;;;;;;;27.13;25.23;;;17.10;93.50;;;;;;5088740;28;20469;-72
2021/09/26 04:02:05;;;;;;;26.40;24.70;;;17.00;93.60;;;;;;5081384;28;20544;-72
2021/09/26 04:04:32;;;;;;;25.90;24.10;;;17.00;93.80;;;;;;5086710;28;21039;-71
2021/09/26 04:06:59;;;;;;;26.93;24.53;;;17.00;93.70;;;;;;5086664;28;21027;-71
2021/09/26 04:09:26;;;;;;;26.77;24.97;;;17.00;93.80;;;;;;5088771;28;20505;-71
2021/09/26 04:11:53;;;;;;;25.27;23.77;;;17.00;93.90;;;;;;5084469;28;20544;-72
2021/09/26 04:14:21;;;;;;;28.43;25.90;;;17.10;93.80;;;;;;5087385;28;20449;-72
2021/09/26 04:16:49;;;;;;;25.90;24.30;;;17.10;93.60;;;;;;5093520;28;20463;-72
2021/09/26 04:19:17;;;;;;;25.60;23.63;;;17.10;93.40;;;;;;5094730;28;20480;-71
2021/09/26 04:21:44;;;;;;;26.00;24.30;;;17.00;93.70;;;;;;5091597;28;20456;-72
2021/09/26 04:24:11;;;;;;;25.67;23.97;;;16.90;94.00;;;;;;5082216;28;20489;-72
2021/09/26 04:26:38;;;;;;;26.47;24.67;;;16.90;94.10;;;;;;5080069;28;20822;-72
2021/09/26 04:29:05;;;;;;;26.10;24.20;;;16.80;94.40;;;;;;5089190;28;20453;-72
2021/09/26 04:31:34;;;;;;;25.80;24.00;;;16.80;94.50;;;;;;5089610;28;20460;-72
2021/09/26 04:34:01;;;;;;;26.10;24.50;;;16.80;94.60;;;;;;5089258;28;20534;-72
2021/09/26 04:36:28;;;;;;;26.90;24.73;;;16.80;94.60;;;;;;5089764;28;20475;-72
2021/09/26 04:38:54;;;;;;;25.97;24.27;;;16.80;94.50;;;;;;5095366;28;20515;-72
2021/09/26 04:41:21;;;;;;;26.87;25.07;;;16.80;94.30;;;;;;5079235;28;20477;-72
2021/09/26 04:43:48;;;;;;;27.07;25.07;;;16.80;94.20;;;;;;5087784;28;20484;-72
2021/09/26 04:46:15;;;;;;;25.80;24.10;;;16.80;94.10;;;;;;5084848;28;20463;-71
2021/09/26 04:48:43;;;;;;;26.20;24.40;;;16.80;94.00;;;;;;5100402;28;20488;-71
2021/09/26 04:51:10;;;;;;;26.17;24.37;;;16.70;94.00;;;;;;5090608;28;20472;-72
2021/09/26 04:53:37;;;;;;;27.40;25.40;;;16.70;94.10;;;;;;5092448;28;20551;-71
2021/09/26 04:56:04;;;;;;;26.20;24.37;;;16.60;94.20;;;;;;5086498;28;20463;-72
2021/09/26 04:58:31;;;;;;;27.03;25.40;;;16.70;94.00;;;;;;5088140;28;20453;-72
2021/09/26 05:00:58;;;;;;;28.00;25.20;;;16.60;94.20;;;;;;5085618;28;21052;-72
2021/09/26 05:03:25;;;;;;;26.07;24.10;;;16.70;94.30;;;;;;5093008;28;20486;-71
2021/09/26 05:05:53;;;;;;;25.83;23.73;;;16.60;94.70;;;;;;5087139;28;20473;-71
2021/09/26 05:08:20;;;;;;;25.63;23.80;;;16.60;94.90;;;;;;5093959;28;20464;-72
2021/09/26 05:10:47;;;;;;;27.33;25.40;;;16.60;94.90;;;;;;5078705;28;20484;-72
2021/09/26 05:13:14;;;;;;;25.83;24.10;;;16.60;95.00;;;;;;5093206;28;20533;-72
2021/09/26 05:15:41;;;;;;;25.60;23.80;;;16.60;95.20;;;;;;5083420;28;21049;-71
2021/09/26 05:18:08;;;;;;;25.53;23.60;;;16.60;95.40;;;;;;5094061;28;20455;-71
2021/09/26 05:20:34;;;;;;;26.00;24.03;;;16.60;95.50;;;;;;5088330;28;20493;-71
2021/09/26 05:23:03;;;;;;;25.77;24.07;;;16.50;95.60;;;;;;5093089;28;20973;-72
2021/09/26 05:25:30;;;;;;;24.30;22.73;;;16.50;95.50;;;;;;5087965;28;20540;-72
2021/09/26 05:27:57;;;;;;;26.60;25.00;;;16.60;95.30;;;;;;5088578;28;21015;-72
2021/09/26 05:30:23;;;;;;;26.10;24.30;;;16.60;95.20;;;;;;5083962;28;20474;-71
2021/09/26 05:32:50;;;;;;;27.03;24.93;;;16.60;95.30;;;;;;5092945;28;20461;-71
2021/09/26 05:35:17;;;;;;;25.63;24.13;;;16.60;95.20;;;;;;5089987;28;21013;-72
2021/09/26 05:37:44;;;;;;;27.93;25.73;;;16.60;95.20;;;;;;5090634;28;20465;-72
2021/09/26 05:40:14;;;;;;;25.77;24.10;;;16.60;95.10;;;;;;5086888;28;20987;-71
2021/09/26 05:42:42;;;;;;;26.40;24.53;;;16.60;95.10;;;;;;5088544;28;20969;-71
2021/09/26 05:45:10;;;;;;;25.70;24.10;;;16.60;95.00;;;;;;5086383;28;20468;-72
2021/09/26 05:47:37;;;;;;;25.73;24.17;;;16.60;95.00;;;;;;5103749;28;20452;-72
2021/09/26 05:50:05;;;;;;;26.00;24.10;;;16.60;94.80;;;;;;5091283;28;20769;-73
2021/09/26 05:52:32;;;;;;;25.53;23.93;;;16.60;94.60;;;;;;5097541;28;20475;-73
2021/09/26 05:54:58;;;;;;;26.70;25.00;;;16.70;94.50;;;;;;5089554;28;20929;-73
2021/09/26 05:57:27;;;;;;;25.67;24.07;;;16.70;94.30;;;;;;5089743;28;20453;-73
2021/09/26 05:59:54;;;;;;;25.07;23.47;;;16.80;94.10;;;;;;5090117;28;20468;-73
2021/09/26 06:02:23;;;;;;;26.77;24.67;;;16.80;94.00;;;;;;5090619;28;20449;-73
2021/09/26 06:04:50;;;;;;;26.60;24.77;;;16.80;93.80;;;;;;5091302;28;20538;-71
2021/09/26 06:07:17;;;;;;;26.20;24.50;;;16.90;93.60;;;;;;5099233;28;20453;-72
2021/09/26 06:09:44;;;;;;;26.83;25.13;;;16.90;93.40;;;;;;5093867;28;20846;-72
2021/09/26 06:12:12;;;;;;;26.63;24.43;;;16.90;93.50;;;;;;5083326;28;20540;-72
2021/09/26 06:14:41;;;;;;;25.57;23.93;;;17.00;93.10;;;;;;5090985;28;20446;-72
2021/09/26 06:17:08;;;;;;;27.10;25.40;;;17.10;92.80;;;;;;5093174;28;20463;-74
2021/09/26 06:19:35;;;;;;;24.93;23.23;;;17.20;92.60;;;;;;5095052;27;20834;-73
2021/09/26 06:22:02;;;;;;;25.93;24.23;;;17.20;92.30;;;;;;5094531;28;20463;-73
2021/09/26 06:24:29;;;;;;;26.50;24.60;;;17.20;92.20;;;;;;5091047;28;20559;-73
2021/09/26 06:26:56;;;;;;;26.90;25.20;;;17.20;92.10;;;;;;5087586;28;20458;-73
2021/09/26 06:29:23;;;;;;;26.23;24.50;;;17.20;92.10;;;;;;5089109;28;20544;-73
2021/09/26 06:31:53;;;;;;;25.43;23.63;;;17.20;92.30;;;;;;5098345;27;20492;-73
2021/09/26 06:34:20;;;;;;;26.97;25.17;;;17.30;92.20;;;;;;5092781;28;20454;-72
2021/09/26 06:36:46;;;;;;;26.90;25.10;;;17.30;92.30;;;;;;5094427;28;20456;-73
2021/09/26 06:39:13;;;;;;;27.90;25.67;;;17.40;92.40;;;;;;5098312;28;20551;-73
2021/09/26 06:41:40;;;;;;;27.83;26.00;;;17.50;92.30;;;;;;5084137;28;20725;-73
2021/09/26 06:44:07;;;;;;;27.47;25.47;;;17.70;91.90;;;;;;5083384;28;20477;-74
2021/09/26 06:46:34;;;;;;;25.93;23.97;;;17.90;91.60;;;;;;5085553;28;20912;-74
2021/09/26 06:49:02;;;;;;;27.23;25.00;;;18.00;91.30;;;;;;5095625;28;20531;-74
2021/09/26 06:51:31;;;;;;;27.30;25.40;;;18.10;91.00;;;;;;5090152;28;20473;-74
2021/09/26 06:53:58;;;;;;;25.60;24.00;;;18.30;90.70;;;;;;5100280;28;20454;-74
2021/09/26 06:56:25;;;;;;;26.50;24.33;;;18.40;90.70;;;;;;5090000;28;20517;-74
2021/09/26 06:58:52;;;;;;;24.97;23.37;;;18.50;90.50;;;;;;5089171;28;20461;-75
2021/09/26 07:01:19;;;;;;;26.17;24.57;;;18.70;90.30;;;;;;5090688;28;20845;-75
2021/09/26 07:03:46;;;;;;;26.07;24.30;;;18.90;89.70;;;;;;5101252;28;20918;-74
2021/09/26 07:06:14;;;;;;;26.53;24.63;;;18.90;89.60;;;;;;5088034;28;20796;-76
2021/09/26 07:08:41;;;;;;;27.20;25.30;;;19.00;89.50;;;;;;5088916;28;20461;-76
2021/09/26 07:11:08;;;;;;;26.37;24.67;;;19.10;89.20;;;;;;5088026;28;21088;-75
2021/09/26 07:13:35;;;;;;;26.10;24.30;;;19.20;89.10;;;;;;5102637;27;20832;-76
2021/09/26 07:16:02;;;;;;;26.80;25.00;;;19.30;88.80;;;;;;5087323;28;20540;-75
2021/09/26 07:18:29;;;;;;;26.37;24.70;;;19.40;88.40;;;;;;5102235;28;20659;-75
2021/09/26 07:20:56;;;;;;;27.20;25.40;;;19.50;88.10;;;;;;5085901;28;20577;-73
2021/09/26 07:23:24;;;;;;;28.07;26.17;;;19.70;87.70;;;;;;5102517;28;20536;-74
2021/09/26 07:25:51;;;;;;;27.03;25.20;;;19.80;87.10;;;;;;5089033;28;20862;-74
2021/09/26 07:28:18;;;;;;;28.97;26.33;;;19.90;86.40;;;;;;5088780;28;20839;-74
2021/09/26 07:30:45;;;;;;;27.87;26.13;;;19.90;86.10;;;;;;5087803;28;20477;-74
2021/09/26 07:33:12;;;;;;;28.47;26.67;;;20.00;86.20;;;;;;5089401;28;20492;-75
2021/09/26 07:35:39;;;;;;;26.97;25.17;;;20.10;85.90;;;;;;5089799;28;20862;-75
2021/09/26 07:38:06;;;;;;;27.10;25.40;;;20.30;85.50;;;;;;5101115;28;20449;-74
2021/09/26 07:40:34;;;;;;;28.70;26.63;;;20.40;85.10;;;;;;5087114;28;20990;-74
2021/09/26 07:43:01;;;;;;;27.43;25.60;;;20.50;84.80;;;;;;5074345;28;20984;-74
2021/09/26 07:45:28;;;;;;;27.23;25.40;;;20.60;84.20;;;;;;5089920;28;20563;-75
2021/09/26 07:47:55;;;;;;;26.60;25.00;;;20.70;84.10;;;;;;5083617;28;20960;-74
2021/09/26 07:50:25;;;;;;;27.90;25.13;;;20.80;83.70;;;;;;5081078;28;20483;-75
2021/09/26 07:52:52;;;;;;;26.37;24.73;;;20.90;83.30;;;;;;5086564;28;21037;-74
2021/09/26 07:55:19;;;;;;;27.67;26.00;;;21.00;83.10;;;;;;5089030;28;20631;-74
2021/09/26 07:57:48;;;;;;;27.43;25.73;;;21.10;82.80;;;;;;5099154;28;20452;-74
2021/09/26 08:00:16;;;;;;;28.33;26.13;;;21.30;82.20;;;;;;5088374;28;20473;-73
2021/09/26 08:02:43;;;;;;;28.13;26.23;;;21.40;81.60;;;;;;5088240;28;20542;-74
2021/09/26 08:05:11;;;;;;;27.63;25.80;;;21.60;81.00;;;;;;5088242;28;20472;-74
2021/09/26 08:07:39;;;;;;;27.07;25.20;;;21.60;80.80;;;;;;5081960;28;20552;-73
2021/09/26 08:10:08;;;;;;;29.57;27.57;;;21.60;80.90;;;;;;5084465;28;20473;-72
2021/09/26 08:12:35;;;;;;;29.17;27.27;;;21.80;80.40;;;;;;5086389;28;20540;-72
2021/09/26 08:15:05;;;;;;;29.67;27.80;;;21.90;80.00;;;;;;5085157;28;20445;-73
2021/09/26 08:17:32;;;;;;;28.30;26.60;;;22.10;79.30;;;;;;5087058;28;20460;-72
2021/09/26 08:20:00;;;;;;;30.90;28.67;;;22.20;78.60;;;;;;5087538;28;20560;-72
2021/09/26 08:22:27;;;;;;;28.10;26.10;;;22.30;78.40;;;;;;5096110;28;20456;-72
2021/09/26 08:24:56;;;;;;;29.20;27.20;;;22.40;78.10;;;;;;5088230;28;20505;-73
2021/09/26 08:27:23;;;;;;;30.70;28.60;;;22.60;77.70;;;;;;5087734;28;20556;-73
2021/09/26 08:29:50;;;;;;;29.73;27.53;;;22.70;77.30;;;;;;5089868;27;20563;-72
2021/09/26 08:32:19;;;;;;;29.90;27.50;;;22.80;77.00;;;;;;5094965;28;20461;-73
2021/09/26 08:34:45;;;;;;;29.90;27.43;;;22.90;76.70;;;;;;5089227;28;20449;-73
2021/09/26 08:37:12;;;;;;;29.67;27.57;;;23.00;76.40;;;;;;5087499;28;20457;-73
2021/09/26 08:39:39;;;;;;;31.53;29.57;;;23.00;76.20;;;;;;5088234;28;20483;-73
2021/09/26 08:42:06;;;;;;;30.63;28.60;;;23.00;76.20;;;;;;5089913;28;20544;-73
2021/09/26 08:44:33;;;;;;;30.97;28.77;;;23.10;76.10;;;;;;5085585;28;20831;-72
2021/09/26 08:47:00;;;;;;;30.63;28.43;;;23.10;76.10;;;;;;5084678;28;20456;-72
2021/09/26 08:49:30;;;;;;;28.57;26.90;;;23.20;76.00;;;;;;5090053;28;20575;-73
2021/09/26 08:51:58;;;;;;;30.10;27.87;;;23.30;75.90;;;;;;5086470;28;20464;-73
2021/09/26 08:54:24;;;;;;;31.87;29.87;;;23.50;75.30;;;;;;5087953;28;20495;-73
2021/09/26 08:56:51;;;;;;;29.70;27.83;;;23.70;74.60;;;;;;5086957;28;20479;-73
2021/09/26 08:59:18;;;;;;;29.23;27.23;;;23.90;74.30;;;;;;5088353;28;20450;-73
2021/09/26 09:01:45;;;;;;;28.90;27.20;;;24.00;73.70;;;;;;5086924;28;20468;-73
2021/09/26 09:04:13;;;;;;;31.30;29.40;;;24.10;73.60;;;;;;5092347;28;20441;-73
2021/09/26 09:06:44;;;;;;;30.23;28.00;;;24.00;73.60;;;;;;5091412;28;20536;-73
2021/09/26 09:09:15;;;;;;;31.10;28.90;;;24.00;73.20;;;;;;5092639;28;20473;-73
2021/09/26 09:11:44;;;;;;;30.50;28.50;;;24.10;72.70;;;;;;5090723;28;20456;-73
2021/09/26 09:14:11;;;;;;;28.33;26.53;;;24.00;73.20;;;;;;5081292;28;20449;-74
2021/09/26 09:16:38;;;;;;;30.53;28.00;;;23.90;73.10;;;;;;5086739;28;20518;-73
2021/09/26 09:19:20;;;;;;;30.10;28.13;;;23.80;73.40;;;;;;5093300;28;20463;-74
2021/09/26 09:22:06;;;;;;;29.30;27.40;;;23.70;73.20;;;;;;5089910;28;20461;-74
2021/09/26 09:24:39;;;;;;;30.97;28.97;;;23.60;73.50;;;;;;5091053;28;20480;-74
2021/09/26 09:27:07;;;;;;;30.30;28.07;;;23.60;73.50;;;;;;5090293;28;20457;-74
2021/09/26 09:29:38;;;;;;;32.63;30.73;;;23.60;73.60;;;;;;5087679;28;20473;-73
2021/09/26 09:32:17;;;;;;;30.33;28.03;;;23.70;72.30;;;;;;5102497;28;20466;-72
2021/09/26 09:34:44;;;;;;;32.63;30.43;;;23.80;71.50;;;;;;5093311;28;20449;-73
2021/09/26 09:37:15;;;;;;;30.73;28.83;;;23.80;70.00;;;;;;5081835;28;20462;-75
2021/09/26 09:40:03;;;;;;;29.90;28.00;;;23.80;69.50;;;;;;5088133;28;20477;-73
2021/09/26 09:42:37;;;;;;;31.40;29.30;;;23.70;70.10;;;;;;5095911;28;21608;-73
2021/09/26 09:45:15;;;;;;;32.33;30.37;;;23.80;69.60;;;;;;5085749;28;20978;-73
2021/09/26 09:47:59;;;;;;;33.00;30.93;;;23.70;70.30;;;;;;5098388;28;20455;-73
2021/09/26 09:50:38;;;;;;;30.80;28.80;;;23.70;70.70;;;;;;5090931;28;20863;-72
2021/09/26 09:53:07;;;;;;;31.90;29.80;;;23.60;71.00;;;;;;5088882;28;20540;-73
2021/09/26 09:55:36;;;;;;;33.03;30.83;;;23.60;71.10;;;;;;5086041;28;20458;-73
2021/09/26 09:58:13;;;;;;;33.27;30.23;;;23.60;71.00;;;;;;5087313;28;20481;-74
2021/09/26 10:00:51;;;;;;;34.30;32.00;;;23.50;71.30;;;;;;5088992;28;20472;-74
2021/09/26 10:03:50;;;;;;;33.23;30.93;;;23.50;71.40;;;;;;5092075;28;20468;-73
2021/09/26 10:06:26;;;;;;;33.47;31.27;;;23.50;71.90;;;;;;5047274;28;20529;-74
2021/09/26 10:08:57;;;;;;;32.93;31.07;;;23.30;72.80;;;;;;5092956;28;20854;-72
2021/09/26 10:11:24;;;;;;;33.03;30.90;;;23.20;73.70;;;;;;5092459;28;20525;-73
2021/09/26 10:13:51;;;;;;;32.70;30.40;;;23.20;74.20;;;;;;5095545;28;20463;-74
2021/09/26 10:16:19;;;;;;;32.33;30.23;;;23.00;74.50;;;;;;5088895;28;20821;-72
2021/09/26 10:18:46;;;;;;;35.40;32.80;;;22.90;75.40;;;;;;5090004;28;20559;-73
2021/09/26 10:21:13;;;;;;;33.50;31.23;;;22.80;75.50;;;;;;5087080;28;20480;-74
2021/09/26 10:23:49;;;;;;;31.67;29.63;;;22.60;76.20;;;;;;5090436;28;20484;-73
2021/09/26 10:26:20;;;;;;;33.07;30.97;;;22.50;76.90;;;;;;5085874;28;20563;-72
2021/09/26 10:28:52;;;;;;;32.13;29.90;;;22.40;77.10;;;;;;5089001;28;20537;-72
2021/09/26 10:31:20;;;;;;;32.60;30.50;;;22.50;77.50;;;;;;5088706;28;20479;-74
2021/09/26 10:33:48;;;;;;;32.37;30.17;;;22.50;77.40;;;;;;5083892;28;20548;-74
2021/09/26 10:36:20;;;;;;;33.60;31.40;;;22.50;77.20;;;;;;5087151;28;20494;-74
2021/09/26 10:38:48;;;;;;;34.23;31.93;;;22.40;77.50;;;;;;5092317;28;20541;-73
2021/09/26 10:41:16;;;;;;;31.77;29.80;;;22.60;77.60;;;;;;5080684;28;20493;-72
2021/09/26 10:43:45;;;;;;;30.90;29.00;;;22.70;77.00;;;;;;5090057;28;20459;-73
2021/09/26 10:46:17;;;;;;;32.07;29.87;;;22.90;76.50;;;;;;5086325;28;20507;-72
2021/09/26 10:49:05;;;;;;;34.20;31.90;;;23.10;76.10;;;;;;5081273;28;21125;-73
2021/09/26 10:51:58;;;;;;;31.17;29.20;;;23.30;75.40;;;;;;5096141;28;20471;-73
2021/09/26 10:54:29;;;;;;;32.27;30.17;;;23.30;75.10;;;;;;5073909;28;20902;-73
2021/09/26 10:57:19;;;;;;;30.97;29.07;;;23.30;74.90;;;;;;5089010;28;20446;-73
2021/09/26 10:59:49;;;;;;;33.20;30.90;;;23.20;75.00;;;;;;5087191;28;20473;-73
2021/09/26 11:02:47;;;;;;;32.43;30.40;;;23.10;75.50;;;;;;5088509;28;20887;-73
2021/09/26 11:05:37;;;;;;;32.17;29.97;;;22.90;75.60;;;;;;5027688;28;20485;-73
2021/09/26 11:08:07;;;;;;;32.53;30.43;;;22.80;76.30;;;;;;5089268;28;20548;-73
2021/09/26 11:10:49;;;;;;;32.23;30.07;;;22.70;76.60;;;;;;5088182;28;20475;-73
2021/09/26 11:13:20;;;;;;;31.47;29.57;;;22.60;76.90;;;;;;5093984;28;20515;-73
2021/09/26 11:16:16;;;;;;;31.53;29.53;;;22.60;77.10;;;;;;5090144;28;20453;-73
2021/09/26 11:18:58;;;;;;;32.00;30.07;;;22.50;77.40;;;;;;5091969;28;20452;-73
2021/09/26 11:21:58;;;;;;;32.50;30.60;;;22.30;77.80;;;;;;5091585;28;20485;-72
2021/09/26 11:24:44;;;;;;;30.80;28.97;;;22.30;78.00;;;;;;5088269;28;20458;-73
2021/09/26 11:27:21;;;;;;;31.63;29.50;;;22.20;78.10;;;;;;5090164;28;20530;-74
2021/09/26 11:30:26;;;;;;;32.87;30.70;;;22.20;78.50;;;;;;5089205;28;21126;-78
2021/09/26 11:33:03;;;;;;;32.60;30.50;;;22.20;78.80;;;;;;5082202;28;20454;-76
2021/09/26 11:35:34;;;;;;;31.43;29.33;;;22.20;78.90;;;;;;5089624;28;20595;-75
2021/09/26 11:38:04;;;;;;;30.67;28.77;;;22.20;78.80;;;;;;5094950;28;20618;-75
2021/09/26 11:41:07;;;;;;;33.67;31.40;;;22.30;78.90;;;;;;5088646;28;20473;-75
2021/09/26 11:43:39;;;;;;;34.53;32.03;;;22.40;78.80;;;;;;5089770;28;20880;-74
2021/09/26 11:46:24;;;;;;;31.80;29.73;;;22.40;78.80;;;;;;5083665;28;20517;-74
2021/09/26 11:48:54;;;;;;;34.43;31.83;;;22.30;79.00;;;;;;5093399;28;20802;-74
2021/09/26 11:51:24;;;;;;;33.30;31.03;;;22.30;79.20;;;;;;5088947;28;20576;-75
2021/09/26 11:53:51;;;;;;;34.23;31.63;;;22.30;79.10;;;;;;5090057;28;20529;-77
2021/09/26 11:56:22;;;;;;;31.93;29.80;;;22.30;78.80;;;;;;5087465;28;20576;-75
2021/09/26 11:58:53;;;;;;;31.87;29.87;;;22.50;78.00;;;;;;5083454;28;20531;-79
2021/09/26 12:01:28;;;;;;;32.90;30.80;;;22.50;77.80;;;;;;5086432;28;21026;-78
2021/09/26 12:04:16;;;;;;;31.07;29.03;;;22.50;77.50;;;;;;5094485;28;20452;-79
2021/09/26 12:06:45;;;;;;;33.70;31.20;;;22.60;77.30;;;;;;5088641;28;20563;-78
2021/09/26 12:09:32;;;;;;;32.30;30.00;;;22.70;77.40;;;;;;5088931;28;20946;-77
2021/09/26 12:11:59;;;;;;;31.50;29.53;;;22.80;77.30;;;;;;5089265;28;20465;-77
2021/09/26 12:14:30;;;;;;;32.63;30.40;;;23.00;76.50;;;;;;5087533;28;20457;-78
2021/09/26 12:16:57;;;;;;;30.07;28.20;;;23.20;76.10;;;;;;5096559;28;20556;-77
2021/09/26 12:19:25;;;;;;;31.73;29.73;;;23.30;75.30;;;;;;5092212;28;20485;-80
2021/09/26 12:22:04;;;;;;;33.10;31.00;;;23.60;74.60;;;;;;5093256;28;20532;-77
2021/09/26 12:24:40;;;;;;;35.00;32.80;;;23.80;74.20;;;;;;5087807;28;20451;-77
2021/09/26 12:27:27;;;;;;;33.40;31.00;;;24.00;73.20;;;;;;5081011;28;20568;-77
2021/09/26 12:29:58;;;;;;;34.97;32.63;;;24.30;72.30;;;;;;5083017;28;20495;-74
2021/09/26 12:32:27;;;;;;;34.20;31.90;;;24.50;71.90;;;;;;5098099;28;20454;-73
2021/09/26 12:34:56;;;;;;;33.00;30.90;;;24.70;70.80;;;;;;5088556;28;20554;-75
2021/09/26 12:37:27;;;;;;;32.50;30.50;;;24.80;70.80;;;;;;5088658;28;20475;-75
2021/09/26 12:39:58;;;;;;;33.27;31.17;;;24.80;70.90;;;;;;5090659;28;20479;-74
2021/09/26 12:42:29;;;;;;;32.10;30.13;;;24.90;70.80;;;;;;5102589;28;20782;-73
2021/09/26 12:44:56;;;;;;;33.07;30.77;;;25.00;70.40;;;;;;5085608;28;20460;-73